createdAt,value
2023-03-26T00:01:25.830Z,79.18
2023-03-26T00:06:18.769Z,79.30
2023-03-26T00:11:13.766Z,79.31
2023-03-26T00:16:06.890Z,79.56
2023-03-26T00:21:01.047Z,79.80
2023-03-26T00:25:54.799Z,79.82
2023-03-26T00:30:48.324Z,79.82
2023-03-26T00:35:43.428Z,79.89
2023-03-26T00:40:36.851Z,79.86
2023-03-26T00:45:29.645Z,79.76
2023-03-26T00:50:22.452Z,79.71
2023-03-26T00:55:16.232Z,79.52
2023-03-26T01:00:17.026Z,79.85
2023-03-26T01:05:35.163Z,79.94
2023-03-26T01:10:28.169Z,79.49
2023-03-26T01:15:22.237Z,79.52
2023-03-26T01:20:26.915Z,79.49
2023-03-26T01:25:21.245Z,79.83
2023-03-26T01:30:38.691Z,79.98
2023-03-26T01:35:38.561Z,80.05
2023-03-26T01:40:43.308Z,80.04
2023-03-26T01:45:40.003Z,79.96
2023-03-26T01:50:32.868Z,80.11
2023-03-26T01:55:38.270Z,79.84
2023-03-26T02:00:34.946Z,80.16
2023-03-26T02:05:46.088Z,80.24
2023-03-26T02:10:44.307Z,80.33
2023-03-26T02:15:37.353Z,80.39
2023-03-26T02:20:30.679Z,80.48
2023-03-26T02:25:24.114Z,80.56
2023-03-26T02:30:26.230Z,80.64
2023-03-26T02:35:22.869Z,80.76
2023-03-26T02:40:21.354Z,80.75
2023-03-26T02:45:14.677Z,80.72
2023-03-26T02:50:26.579Z,80.85
2023-03-26T02:55:49.203Z,80.56
2023-03-26T03:00:43.787Z,80.54
2023-03-26T03:05:56.887Z,80.80
2023-03-26T03:11:21.873Z,80.89
2023-03-26T03:16:15.937Z,81.03
2023-03-26T03:21:08.850Z,80.95
2023-03-26T03:26:02.760Z,80.99
2023-03-26T03:30:57.776Z,81.07
2023-03-26T03:35:59.501Z,81.21
2023-03-26T03:40:55.572Z,81.26
2023-03-26T03:45:49.935Z,81.65
2023-03-26T03:51:02.891Z,81.63
2023-03-26T03:56:19.129Z,81.67
2023-03-26T04:01:31.874Z,81.69
2023-03-26T04:06:30.413Z,81.69
2023-03-26T04:11:23.870Z,81.86
2023-03-26T04:16:42.690Z,82.09
2023-03-26T04:21:38.062Z,82.15
2023-03-26T04:26:32.030Z,82.20
2023-03-26T04:31:31.276Z,82.09
2023-03-26T04:36:29.121Z,82.13
2023-03-26T04:41:26.416Z,82.28
2023-03-26T04:46:27.422Z,82.23
2023-03-26T04:51:39.571Z,82.07
2023-03-26T04:56:48.218Z,82.03
2023-03-26T05:01:55.377Z,81.98
2023-03-26T05:06:49.497Z,81.89
2023-03-26T05:11:48.376Z,81.81
2023-03-26T05:16:41.563Z,81.61
2023-03-26T05:21:35.890Z,81.45
2023-03-26T05:26:29.330Z,81.47
2023-03-26T05:31:22.926Z,81.16
2023-03-26T05:36:19.230Z,80.70
2023-03-26T05:41:22.168Z,80.22
2023-03-26T05:46:16.311Z,80.05
2023-03-26T05:51:09.710Z,79.83
2023-03-26T05:56:05.726Z,79.71
2023-03-26T06:01:19.787Z,79.21
2023-03-26T06:06:33.373Z,79.06
2023-03-26T06:11:26.724Z,78.81
2023-03-26T06:16:26.360Z,78.48
2023-03-26T06:21:35.349Z,78.06
2023-03-26T06:26:44.189Z,77.65
2023-03-26T06:32:03.444Z,77.16
2023-03-26T06:37:09.042Z,76.79
2023-03-26T06:42:02.033Z,77.04
2023-03-26T06:47:08.393Z,76.56
2023-03-26T06:52:16.520Z,77.08
2023-03-26T06:57:12.045Z,77.36
2023-03-26T07:02:23.965Z,77.92
2023-03-26T07:07:46.368Z,78.26
2023-03-26T07:13:09.057Z,78.68
2023-03-26T07:18:34.249Z,79.43
2023-03-26T07:23:29.349Z,79.53
2023-03-26T07:29:04.569Z,79.11
2023-03-26T07:34:41.966Z,78.31
2023-03-26T07:40:00.418Z,78.02
2023-03-26T07:45:17.955Z,75.47
2023-03-26T07:50:27.167Z,71.13
2023-03-26T07:55:26.295Z,68.53
2023-03-26T08:00:45.947Z,67.61
2023-03-26T08:05:51.551Z,67.03
2023-03-26T08:11:19.693Z,67.52
2023-03-26T08:16:24.377Z,67.63
2023-03-26T08:21:23.584Z,68.58
2023-03-26T08:26:29.639Z,69.05
2023-03-26T08:31:39.219Z,69.21
2023-03-26T08:36:32.520Z,69.09
2023-03-26T08:41:40.605Z,69.56
2023-03-26T08:46:42.314Z,69.49
2023-03-26T08:51:53.028Z,68.98
2023-03-26T08:57:16.981Z,69.28
2023-03-26T09:02:37.146Z,69.69
2023-03-26T09:07:48.294Z,69.15
2023-03-26T09:12:59.776Z,68.32
2023-03-26T09:18:46.354Z,67.08
2023-03-26T09:24:01.593Z,65.07
2023-03-26T09:29:06.520Z,65.14
2023-03-26T09:34:14.364Z,65.37
2023-03-26T09:39:33.382Z,66.65
2023-03-26T09:44:38.153Z,67.90
2023-03-26T09:49:54.103Z,69.19
2023-03-26T09:55:15.576Z,68.76
2023-03-26T10:00:34.682Z,68.46
2023-03-26T10:05:47.055Z,68.49
2023-03-26T10:10:43.532Z,68.45
2023-03-26T10:15:54.720Z,68.59
2023-03-26T10:20:53.462Z,68.59
2023-03-26T10:26:14.472Z,68.64
2023-03-26T10:31:31.236Z,68.43
2023-03-26T10:36:35.838Z,67.44
2023-03-26T10:41:39.668Z,67.51
2023-03-26T10:46:41.447Z,67.36
2023-03-26T10:52:12.832Z,63.54
2023-03-26T10:57:25.007Z,59.54
2023-03-26T11:02:42.965Z,59.24
2023-03-26T11:08:13.366Z,61.26
2023-03-26T11:13:24.924Z,61.65
2023-03-26T11:18:31.565Z,62.97
2023-03-26T11:23:28.505Z,64.92
2023-03-26T11:28:40.171Z,65.70
2023-03-26T11:34:36.909Z,65.52
2023-03-26T11:39:00.885Z,65.05
2023-03-26T11:44:05.704Z,64.95
2023-03-26T11:49:01.551Z,64.67
2023-03-26T11:53:54.710Z,63.33
2023-03-26T11:58:56.445Z,63.35
2023-03-26T12:04:08.151Z,62.90
2023-03-26T12:09:01.423Z,61.64
2023-03-26T12:13:59.493Z,61.04
2023-03-26T12:20:12.026Z,61.03
2023-03-26T12:25:26.211Z,61.28
2023-03-26T12:30:25.653Z,60.69
2023-03-26T12:35:27.867Z,60.06
2023-03-26T12:40:28.556Z,59.74
2023-03-26T12:45:24.724Z,59.63
2023-03-26T12:50:18.196Z,59.79
2023-03-26T12:55:39.528Z,60.08
2023-03-26T13:00:44.709Z,60.39
2023-03-26T13:05:46.776Z,60.99
2023-03-26T13:10:43.165Z,61.25
2023-03-26T13:15:40.104Z,60.77
2023-03-26T13:20:50.050Z,60.84
2023-03-26T13:25:58.182Z,61.06
2023-03-26T13:31:00.544Z,62.87
2023-03-26T13:36:14.423Z,64.71
2023-03-26T13:41:27.645Z,65.88
2023-03-26T13:46:36.778Z,65.60
2023-03-26T13:51:41.946Z,65.59
2023-03-26T13:56:44.749Z,65.01
2023-03-26T14:01:45.533Z,63.66
2023-03-26T14:06:48.381Z,63.11
2023-03-26T14:11:41.131Z,62.18
2023-03-26T14:16:45.593Z,62.44
2023-03-26T14:22:01.026Z,63.24
2023-03-26T14:27:10.716Z,64.38
2023-03-26T14:32:24.232Z,63.90
2023-03-26T14:37:31.475Z,63.25
2023-03-26T14:42:56.498Z,61.96
2023-03-26T14:48:27.121Z,61.50
2023-03-26T14:53:40.501Z,60.96
2023-03-26T14:59:04.068Z,60.89
2023-03-26T15:04:34.714Z,59.86
2023-03-26T15:10:08.154Z,59.90
2023-03-26T15:15:13.074Z,59.30
2023-03-26T15:20:49.141Z,58.89
2023-03-26T15:26:00.717Z,58.46
2023-03-26T15:31:27.542Z,58.49
2023-03-26T15:36:45.973Z,58.64
2023-03-26T15:41:48.437Z,58.65
2023-03-26T15:47:00.193Z,58.45
2023-03-26T15:52:21.140Z,58.55
2023-03-26T15:57:26.483Z,58.72
2023-03-26T16:02:50.348Z,59.18
2023-03-26T16:07:54.241Z,59.39
2023-03-26T16:12:54.872Z,59.72
2023-03-26T16:18:12.047Z,59.94
2023-03-26T16:23:07.167Z,60.49
2023-03-26T16:28:23.601Z,60.84
2023-03-26T16:33:37.531Z,61.30
2023-03-26T16:38:55.667Z,61.70
2023-03-26T16:43:55.210Z,62.05
2023-03-26T16:49:03.829Z,62.27
2023-03-26T16:54:24.864Z,62.56
2023-03-26T17:00:05.792Z,62.99
2023-03-26T17:05:21.221Z,63.51
2023-03-26T17:10:32.128Z,63.91
2023-03-26T17:15:31.503Z,64.05
2023-03-26T17:20:26.759Z,64.50
2023-03-26T17:25:22.620Z,64.76
2023-03-26T17:30:46.563Z,65.11
2023-03-26T17:35:49.239Z,65.69
2023-03-26T17:40:58.582Z,65.78
2023-03-26T17:46:02.856Z,66.42
2023-03-26T17:51:05.365Z,66.70
2023-03-26T17:56:05.106Z,67.14
2023-03-26T18:01:36.160Z,67.29
2023-03-26T18:06:55.491Z,67.74
2023-03-26T18:12:09.396Z,67.87
2023-03-26T18:17:03.533Z,68.24
2023-03-26T18:22:04.894Z,68.21
2023-03-26T18:27:12.442Z,68.86
2023-03-26T18:32:11.960Z,69.13
2023-03-26T18:37:31.823Z,69.40
2023-03-26T18:42:26.536Z,69.56
2023-03-26T18:47:20.136Z,69.57
2023-03-26T18:52:17.876Z,69.60
2023-03-26T18:57:21.774Z,69.99
2023-03-26T19:02:16.567Z,70.13
2023-03-26T19:07:14.647Z,70.18
2023-03-26T19:12:16.896Z,70.37
2023-03-26T19:17:09.979Z,70.53
2023-03-26T19:22:03.840Z,70.60
2023-03-26T19:26:57.346Z,70.66
2023-03-26T19:31:54.633Z,70.68
2023-03-26T19:37:04.380Z,70.86
2023-03-26T19:41:57.253Z,70.98
2023-03-26T19:46:52.816Z,71.30
2023-03-26T19:51:52.090Z,71.16
2023-03-26T19:56:45.484Z,71.45
2023-03-26T20:01:38.792Z,71.60
2023-03-26T20:06:42.643Z,71.62
2023-03-26T20:11:40.825Z,71.64
2023-03-26T20:16:35.423Z,71.63
2023-03-26T20:21:28.387Z,71.60
2023-03-26T20:26:22.658Z,71.81
2023-03-26T20:31:22.215Z,72.25
2023-03-26T20:36:33.820Z,72.46
2023-03-26T20:41:31.817Z,72.22
2023-03-26T20:46:31.325Z,72.23
2023-03-26T20:51:24.807Z,72.57
2023-03-26T20:56:20.756Z,72.49
2023-03-26T21:01:17.448Z,72.77
2023-03-26T21:06:14.541Z,72.80
2023-03-26T21:11:15.539Z,72.77
2023-03-26T21:16:19.788Z,72.82
2023-03-26T21:21:59.061Z,72.85
2023-03-26T21:27:06.968Z,73.05
2023-03-26T21:32:00.413Z,73.34
2023-03-26T21:36:53.588Z,73.21
2023-03-26T21:42:04.822Z,73.36
2023-03-26T21:46:58.602Z,73.29
2023-03-26T21:51:51.635Z,73.35
2023-03-26T21:56:53.468Z,73.64
2023-03-26T22:02:05.309Z,73.49
2023-03-26T22:07:15.889Z,73.39
2023-03-26T22:12:10.656Z,73.58
2023-03-26T22:17:03.638Z,73.47
2023-03-26T22:21:58.511Z,73.89
2023-03-26T22:26:51.380Z,73.51
2023-03-26T22:31:45.302Z,73.72
2023-03-26T22:36:40.403Z,74.00
2023-03-26T22:41:33.378Z,73.72
2023-03-26T22:46:26.714Z,74.01
2023-03-26T22:51:20.259Z,73.99
2023-03-26T22:56:15.452Z,74.02
2023-03-26T23:01:17.013Z,74.32
2023-03-26T23:06:12.222Z,74.06
2023-03-26T23:11:23.406Z,74.11
2023-03-26T23:16:17.590Z,74.31
2023-03-26T23:21:22.271Z,74.32
2023-03-26T23:26:15.671Z,74.77
2023-03-26T23:31:10.568Z,74.52
2023-03-26T23:36:09.252Z,74.52
2023-03-26T23:41:02.148Z,74.46
2023-03-26T23:45:57.092Z,74.62
2023-03-26T23:51:03.001Z,74.65
2023-03-26T23:55:58.152Z,74.67
